x

Buoy E01 - Central Maine Shelf (44032) Wave Buoy

5:04am - Sat 25th Jun 2016 All times are EDT. -4 hours from GMT.

  • Sig Wave height 2.3ft
  • Peak Period 8s
  • Wind
    2mph, 4mph gusts
  • Sea Temp 58°f
  • 空気 Temp 58°f
  • Sea Pressure 1020.5mb
  • Buoy E01 - Central Maine Shelf
  • Buoy E01 - Central Maine Shelf

More Historic Weather Station data

Upgrade to MSW Pro to gain access to the past 30 days of data for over 8000 Wavebouys and Weather Stations around the globe.

Join Pro

Comparision Forecast

View Surf forecast
   
Sat 06/25 5:04am 2.5ft 8s 2 4 mph 1020.5mb 58f 58f
4:04am 2.5ft 8s 4 7 mph 1019.9mb 58f 58f
3:04am 2ft 8s 2 4 mph 1019.9mb 59f 59f
2:04am 2.5ft 8s 2
mph
1019.8mb 59f 59f
1:04am 2.5ft 8s 2 4 mph 1019.8mb 59f 59f
12:04am 2.5ft 8s 2 4 mph 1019.8mb 59f 59f
Fri 06/24 11:04pm 2ft 8s 7
mph
1019.7mb 59f 60f
10:04pm 1.6ft 8s 4
mph
1019.6mb 59f 59f
9:04pm 2.5ft 8s 4 7 mph 1019.4mb 58f 59f
8:04pm 2ft 8s 7 9 mph 1018.8mb 58f 60f
7:04pm 2ft 8s 9 11 mph 1018.5mb 58f 61f
6:04pm 2.5ft 8s 9 11 mph 1018.1mb 59f 61f
5:04pm 2ft 8s 9 11 mph 1017.7mb 59f 62f
4:04pm 2.5ft 8s 9 11 mph 1017.7mb 59f 61f
3:04pm 2.5ft 6s 9
mph
1017.4mb 58f 61f
2:04pm 2.5ft 6s 7 9 mph 1017.3mb 60f 61f
1:04pm 2.5ft 8s 7 9 mph 1017.4mb 60f 62f
12:04pm 2.5ft 8s 7
mph
1017.6mb 58f 62f
11:04am 2.5ft 8s 2
mph
1017.3mb 58f 62f
10:04am 2.5ft 8s  -  2 mph 1017mb 58f 61f
9:04am 2.5ft 8s 7 9 mph 1016.4mb 58f 60f
8:04am 3ft 8s 9
mph
1015.5mb 57f 60f
7:04am 2.5ft 8s 9 11 mph 1014.7mb 56f 60f
6:04am 2.5ft 8s 7 9 mph 1014mb 56f 59f
5:04am 2.5ft 8s 9 11 mph 1013.2mb 57f 58f
4:04am 3ft 8s 7 9 mph 1012mb 57f 59f
3:04am 3ft 6s 7
mph
1011.4mb 57f 58f
2:04am 3.5ft 6s 4 7 mph 1010.9mb 57f 58f
1:04am 3.5ft 8s 2 4 mph 1010.9mb 57f 58f
12:04am 3.5ft 8s 2
mph
1010.9mb 57f 58f
Thu 06/23 11:04pm 3.5ft 8s 4
mph
1010.6mb 57f 59f
10:04pm 3ft 8s 4
mph
1010.6mb 57f 59f
9:04pm 3ft 8s 4 7 mph 1010.3mb 57f 59f
8:04pm 3.5ft 8s 7 9 mph 1009.4mb 57f 59f
7:04pm 3ft 8s 11
mph
1009.2mb 57f 60f
6:04pm 3.5ft 8s 11 13 mph 1009.1mb 57f 60f
5:04pm 3.5ft 11s 11
mph
1009.1mb 57f 60f
4:04pm 3.5ft 8s 11 13 mph 1009.2mb 57f 60f
3:04pm 3.5ft 8s 11 13 mph 1009.2mb 57f 60f
2:04pm 3.5ft 8s 9 11 mph 1009.5mb 57f 60f
1:04pm 3.5ft 8s 7
mph
1009.9mb 56f 59f
12:04pm 4ft 8s 7 9 mph 1010.5mb 56f 59f
11:04am 3.5ft 8s 7 9 mph 1010.4mb 57f 58f
10:04am 4.5ft 8s 4
mph
1011.1mb 56f 58f
9:04am 4.5ft 8s 4 7 mph 1011.6mb 56f 58f
8:04am 4ft 8s 4 7 mph 1011mb 55f 57f
7:04am 4ft 8s 4
mph
1010.5mb 55f 57f
6:04am 3.5ft 8s 7 9 mph 1010.3mb 55f 57f
5:04am 3.5ft 8s 7 9 mph 1009.8mb 55f 57f
4:04am 3ft 8s 9 11 mph 1009.4mb 55f 58f
3:04am 3ft 11s 7 9 mph 1009.1mb 56f 58f
2:04am 3ft 8s 7 9 mph 1009.4mb 56f 58f
1:04am 3.5ft 8s 4 7 mph 1009.8mb 56f 58f
12:04am 3.5ft 8s 7 9 mph 1009.7mb 56f 59f
Wed 06/22 11:04pm 3.5ft 8s 7
mph
1009.7mb 56f 58f
10:04pm 4.5ft 8s 7
mph
1009.4mb 57f 59f
9:04pm 4ft 8s 9
mph
1009.1mb 57f 60f
8:04pm 4ft 8s 9
mph
1008.6mb 57f 59f
7:04pm 3.5ft 8s 16 18 mph 1007.5mb 57f 60f
6:04pm 3.5ft 8s 13 16 mph 1006.7mb 57f 59f
5:04pm 3.5ft 8s 11 13 mph 1006.5mb 57f 59f
4:04pm 3.5ft 8s 9 13 mph 1006.2mb 57f 59f
3:04pm 4ft 8s 11 16 mph 1007.4mb 57f 58f
2:04pm 3ft 6s 7 9 mph 1006.3mb 58f 60f
1:04pm 4ft 8s 4 7 mph 1005.9mb 58f 60f
12:04pm 4.5ft 8s 4
mph
1006.5mb 58f 60f
11:04am 4ft 8s 4 7 mph 1006.6mb 58f 60f
10:04am 4ft 8s 4 7 mph 1006.7mb 57f 59f
9:04am 4.5ft 8s 4 7 mph 1007mb 57f 58f
8:04am 4ft 8s 4
mph
1007.3mb 56f 58f
7:04am 3.5ft 8s 4
mph
1006.8mb 56f 59f
6:04am 3.5ft 8s 2 4 mph 1006.8mb 56f 59f
5:04am 4ft 8s 2
mph
1006.7mb 56f 58f
4:04am 3.5ft 8s 2 4 mph 1006.8mb 56f 58f
3:04am 4ft 11s 2
mph
1006.5mb 56f 60f
2:04am 3.5ft 8s 2
mph
1006.3mb 56f 59f
1:04am 3.5ft 11s 2
mph
1006.3mb 56f 60f
12:04am 4.5ft 11s 4
mph
1006.3mb 56f 62f
Tue 06/21 11:04pm 4.5ft 11s 2 4 mph 1006.7mb 57f 60f
10:04pm 5ft 11s 2 4 mph 1006.1mb 57f 61f
9:04pm 5ft 8s 4 7 mph 1004.9mb 57f 61f
8:04pm 5ft 8s 7 9 mph 1004.2mb 57f 61f
7:04pm 5.5ft 8s 11 13 mph 1003.3mb 57f 61f
6:04pm 5ft 11s 11 13 mph 1002.5mb 57f 60f
5:04pm 5ft 11s 11 13 mph 1002.6mb 56f 61f
4:04pm 5.5ft 11s 13 16 mph 1002.9mb 56f 60f
3:04pm 5.5ft 11s 18 20 mph 1002.9mb 56f 60f
2:04pm 5ft 11s 16 18 mph 1003.2mb 56f 59f
1:04pm 5ft 6s 16 18 mph 1003.7mb 56f 59f
12:04pm 4.5ft 11s 11 13 mph 1004mb 56f 59f
11:04am 5ft 5s 16 18 mph 1003.9mb 56f 59f